createdAt,value
2017-12-27T00:06:08.194Z,2.14
2017-12-27T00:12:17.240Z,2.09
2017-12-27T00:18:26.320Z,2.31
2017-12-27T00:24:35.371Z,2.43
2017-12-27T00:30:44.304Z,2.62
2017-12-27T00:36:48.074Z,2.80
2017-12-27T00:42:53.104Z,2.95
2017-12-27T00:48:56.985Z,2.90
2017-12-27T00:55:00.519Z,2.87
2017-12-27T01:01:04.064Z,2.93
2017-12-27T01:07:07.583Z,2.92
2017-12-27T01:13:11.055Z,2.85
2017-12-27T01:19:15.595Z,2.93
2017-12-27T01:25:19.058Z,2.90
2017-12-27T01:31:22.796Z,2.97
2017-12-27T01:37:26.482Z,3.13
2017-12-27T01:43:30.717Z,3.17
2017-12-27T01:49:34.209Z,3.30
2017-12-27T01:55:37.676Z,3.37
2017-12-27T02:01:41.939Z,3.38
2017-12-27T02:07:45.650Z,3.37
2017-12-27T02:13:49.312Z,3.53
2017-12-27T02:19:52.894Z,3.51
2017-12-27T02:25:56.487Z,3.55
2017-12-27T02:31:59.940Z,3.53
2017-12-27T02:38:04.213Z,3.49
2017-12-27T02:44:07.692Z,3.36
2017-12-27T02:50:12.059Z,3.24
2017-12-27T02:56:16.338Z,3.22
2017-12-27T03:02:19.835Z,3.22
2017-12-27T03:08:25.037Z,3.03
2017-12-27T03:14:28.622Z,2.88
2017-12-27T03:20:32.128Z,2.83
2017-12-27T03:26:35.646Z,2.70
2017-12-27T03:32:39.927Z,2.67
2017-12-27T03:38:43.408Z,2.71
2017-12-27T03:44:47.021Z,2.65
2017-12-27T03:50:50.860Z,2.59
2017-12-27T03:56:55.060Z,2.54
2017-12-27T04:02:58.736Z,2.58
2017-12-27T04:09:02.443Z,2.62
2017-12-27T04:15:06.140Z,2.63
2017-12-27T04:21:09.732Z,2.75
2017-12-27T04:27:13.532Z,2.79
2017-12-27T04:33:17.799Z,2.76
2017-12-27T04:39:23.405Z,2.79
2017-12-27T04:45:27.631Z,2.77
2017-12-27T04:51:31.293Z,2.80
2017-12-27T04:57:34.780Z,2.87
2017-12-27T05:03:39.062Z,2.97
2017-12-27T05:09:42.714Z,2.98
2017-12-27T05:15:47.138Z,3.08
2017-12-27T05:21:50.868Z,3.13
2017-12-27T05:27:55.048Z,3.18
2017-12-27T05:33:59.375Z,3.23
2017-12-27T05:40:02.878Z,3.27
2017-12-27T05:46:06.373Z,3.28
2017-12-27T05:52:10.016Z,3.20
2017-12-27T05:58:13.638Z,3.19
2017-12-27T06:04:17.942Z,3.17
2017-12-27T06:10:21.612Z,3.24
2017-12-27T06:16:25.374Z,3.30
2017-12-27T06:22:29.877Z,3.38
2017-12-27T06:28:34.123Z,3.43
2017-12-27T06:34:37.702Z,3.49
2017-12-27T06:40:41.266Z,3.51
2017-12-27T06:46:45.520Z,3.53
2017-12-27T06:52:49.956Z,3.53
2017-12-27T06:58:53.466Z,3.56
2017-12-27T07:04:58.030Z,3.57
2017-12-27T07:11:01.621Z,3.56
2017-12-27T07:17:05.298Z,3.52
2017-12-27T07:23:08.820Z,3.64
2017-12-27T07:29:13.019Z,3.71
2017-12-27T07:35:16.504Z,3.79
2017-12-27T07:41:21.039Z,3.84
2017-12-27T07:47:24.972Z,3.91
2017-12-27T07:53:29.206Z,3.92
2017-12-27T07:59:32.731Z,3.87
2017-12-27T08:05:36.311Z,3.90
2017-12-27T08:11:39.869Z,3.87
2017-12-27T08:17:43.509Z,3.91
2017-12-27T08:23:47.165Z,3.90
2017-12-27T08:29:51.411Z,4.04
2017-12-27T08:35:55.750Z,4.09
2017-12-27T08:41:59.229Z,4.24
2017-12-27T08:48:03.448Z,4.47
2017-12-27T08:54:06.929Z,4.66
2017-12-27T09:00:10.476Z,4.61
2017-12-27T09:06:14.019Z,4.79
2017-12-27T09:12:17.499Z,5.00
2017-12-27T09:18:21.904Z,5.06
2017-12-27T09:24:26.019Z,5.12
2017-12-27T09:30:29.485Z,5.10
2017-12-27T09:36:33.049Z,5.17
2017-12-27T09:42:36.639Z,5.23
2017-12-27T09:48:40.247Z,5.27
2017-12-27T09:54:43.744Z,5.36
2017-12-27T10:00:47.986Z,5.52
2017-12-27T10:06:51.686Z,5.65
2017-12-27T10:12:55.229Z,5.87
2017-12-27T10:18:59.474Z,6.17
2017-12-27T10:25:02.981Z,6.31
2017-12-27T10:31:06.452Z,6.70
2017-12-27T10:37:09.910Z,6.76
2017-12-27T10:43:13.405Z,6.84
2017-12-27T10:49:17.662Z,6.78
2017-12-27T10:55:21.394Z,6.59
2017-12-27T11:01:24.987Z,6.66
2017-12-27T11:07:29.320Z,6.58
2017-12-27T11:13:32.851Z,6.47
2017-12-27T11:19:36.311Z,6.22
2017-12-27T11:25:39.885Z,6.34
2017-12-27T11:31:43.406Z,6.48
2017-12-27T11:37:46.894Z,6.61
2017-12-27T11:43:50.493Z,6.63
2017-12-27T11:49:55.223Z,6.68
2017-12-27T11:55:59.638Z,6.63
2017-12-27T12:02:03.915Z,6.71
2017-12-27T12:08:07.691Z,6.70
2017-12-27T12:14:12.034Z,6.58
2017-12-27T12:20:15.538Z,6.68
2017-12-27T12:26:19.080Z,6.88
2017-12-27T12:32:23.679Z,6.97
2017-12-27T12:38:27.190Z,6.97
2017-12-27T12:44:30.910Z,6.75
2017-12-27T12:50:34.588Z,6.70
2017-12-27T12:56:38.115Z,6.69
2017-12-27T13:02:41.699Z,6.53
2017-12-27T13:08:45.346Z,6.56
2017-12-27T13:14:48.812Z,6.77
2017-12-27T13:20:53.324Z,6.88
2017-12-27T13:26:57.546Z,6.55
2017-12-27T13:33:01.109Z,6.47
2017-12-27T13:39:04.570Z,6.14
2017-12-27T13:45:08.029Z,6.14
2017-12-27T13:51:11.542Z,6.00
2017-12-27T13:57:15.127Z,5.83
2017-12-27T14:03:18.708Z,5.80
2017-12-27T14:09:22.451Z,5.63
2017-12-27T14:15:27.048Z,5.60
2017-12-27T14:21:30.525Z,5.57
2017-12-27T14:27:34.035Z,5.56
2017-12-27T14:33:38.326Z,5.51
2017-12-27T14:39:41.869Z,5.45
2017-12-27T14:45:45.377Z,5.56
2017-12-27T14:51:48.906Z,5.55
2017-12-27T14:57:53.266Z,5.53
2017-12-27T15:04:05.953Z,5.55
2017-12-27T15:10:10.390Z,5.58
2017-12-27T15:16:13.867Z,5.50
2017-12-27T15:22:17.631Z,5.45
2017-12-27T15:28:22.444Z,5.33
2017-12-27T15:34:26.023Z,5.28
2017-12-27T15:40:29.521Z,5.33
2017-12-27T15:46:33.849Z,5.22
2017-12-27T15:52:37.352Z,5.18
2017-12-27T15:58:40.822Z,5.09
2017-12-27T16:04:45.797Z,5.19
2017-12-27T16:10:50.350Z,5.19
2017-12-27T16:16:55.435Z,5.21
2017-12-27T16:22:58.956Z,5.18
2017-12-27T16:29:04.047Z,5.15
2017-12-27T16:35:07.572Z,5.09
2017-12-27T16:41:11.196Z,5.04
2017-12-27T16:47:14.702Z,5.04
2017-12-27T16:53:18.175Z,5.07
2017-12-27T16:59:23.023Z,5.01
2017-12-27T17:05:26.814Z,4.99
2017-12-27T17:11:30.277Z,5.02
2017-12-27T17:17:33.797Z,5.11
2017-12-27T17:23:38.078Z,5.19
2017-12-27T17:29:41.684Z,5.19
2017-12-27T17:35:45.145Z,5.30
2017-12-27T17:41:48.673Z,5.30
2017-12-27T17:47:52.401Z,5.41
2017-12-27T17:53:56.081Z,5.38
2017-12-27T18:00:01.289Z,5.41
2017-12-27T18:06:04.764Z,5.49
2017-12-27T18:12:08.237Z,5.59
2017-12-27T18:18:11.677Z,5.59
2017-12-27T18:24:15.148Z,5.50
2017-12-27T18:30:19.425Z,5.52
2017-12-27T18:36:23.842Z,5.45
2017-12-27T18:42:27.519Z,5.39
2017-12-27T18:48:31.026Z,5.42
2017-12-27T18:54:34.529Z,5.39
2017-12-27T19:00:38.784Z,5.36
2017-12-27T19:06:42.317Z,5.38
2017-12-27T19:12:45.843Z,5.39
2017-12-27T19:18:50.135Z,5.35
2017-12-27T19:24:54.052Z,5.39
2017-12-27T19:30:57.830Z,5.34
2017-12-27T19:37:01.418Z,5.26
2017-12-27T19:43:04.900Z,5.23
2017-12-27T19:49:08.343Z,5.14
2017-12-27T19:55:11.814Z,4.99
2017-12-27T20:01:15.293Z,4.81
2017-12-27T20:07:18.786Z,4.69
2017-12-27T20:13:22.592Z,4.68
2017-12-27T20:19:26.318Z,4.77
2017-12-27T20:25:29.889Z,4.79
2017-12-27T20:31:33.361Z,4.83
2017-12-27T20:37:36.827Z,4.80
2017-12-27T20:43:40.294Z,4.87
2017-12-27T20:49:43.771Z,4.89
2017-12-27T20:55:47.481Z,4.91
2017-12-27T21:01:51.400Z,4.89
2017-12-27T21:07:55.257Z,4.74
2017-12-27T21:13:58.918Z,4.65
2017-12-27T21:20:02.551Z,4.55
2017-12-27T21:26:06.798Z,4.46
2017-12-27T21:32:10.525Z,4.24
2017-12-27T21:38:14.021Z,3.97
2017-12-27T21:44:17.593Z,3.64
2017-12-27T21:50:22.299Z,3.31
2017-12-27T21:56:26.150Z,3.15
2017-12-27T22:02:29.734Z,3.04
2017-12-27T22:08:33.257Z,2.97
2017-12-27T22:14:37.594Z,3.10
2017-12-27T22:20:46.796Z,3.04
2017-12-27T22:26:50.374Z,2.91
2017-12-27T22:32:54.197Z,2.78
2017-12-27T22:38:58.540Z,2.80
2017-12-27T22:45:02.221Z,2.81
2017-12-27T22:51:05.830Z,2.74
2017-12-27T22:57:10.139Z,2.90
2017-12-27T23:03:13.825Z,2.85
2017-12-27T23:09:17.468Z,2.72
2017-12-27T23:15:21.443Z,2.73
2017-12-27T23:21:25.565Z,2.67
2017-12-27T23:27:29.033Z,2.64
2017-12-27T23:33:32.519Z,2.66
2017-12-27T23:39:37.609Z,2.68
2017-12-27T23:45:41.095Z,2.79
2017-12-27T23:51:44.696Z,2.83
2017-12-27T23:57:48.177Z,2.83
